Time;durP1;ratioP1;P1;durP2;ratioP2;P2;SDS_P1;SDS_P2;PMS_P1;PMS_P2;Temp;Humidity;BMP_temperature;BMP_pressure;BME280_temperature;BME280_humidity;BME280_pressure;Samples;Min_cycle;Max_cycle;Signal;HPM_P1;HPM_P2
2022/05/28 00:01:25;;;;;;;0.95;0.73;;;;;;;18.60;48.41;100965.50;4915057;29;20079;-83
2022/05/28 00:03:57;;;;;;;2.90;0.75;;;;;;;18.59;47.63;100965.50;4917658;29;20087;-82
2022/05/28 00:06:29;;;;;;;1.58;0.70;;;;;;;18.56;48.43;100971.63;4915222;29;20048;-82
2022/05/28 00:08:58;;;;;;;3.40;0.93;;;;;;;18.54;48.15;100978.59;4915322;29;20495;-81
2022/05/28 00:11:28;;;;;;;1.42;0.90;;;;;;;18.52;48.23;100969.88;4915314;29;20052;-83
2022/05/28 00:13:57;;;;;;;1.63;0.80;;;;;;;18.51;47.30;100968.13;4913414;29;20087;-83
2022/05/28 00:16:26;;;;;;;4.10;1.05;;;;;;;18.49;47.21;100964.63;4914544;29;20048;-83
2022/05/28 00:18:55;;;;;;;3.55;0.90;;;;;;;18.48;47.03;100962.00;4914160;29;20096;-83
2022/05/28 00:21:27;;;;;;;1.63;0.75;;;;;;;18.47;46.41;100955.91;4908610;29;20495;-82
2022/05/28 00:23:55;;;;;;;2.28;1.38;;;;;;;18.48;47.09;100962.00;4895321;29;20063;-81
2022/05/28 00:26:24;;;;;;;3.55;0.77;;;;;;;18.52;47.78;100966.38;4895318;29;20543;-82
2022/05/28 00:28:53;;;;;;;2.83;0.82;;;;;;;18.53;47.43;100955.91;4895270;29;20084;-82
2022/05/28 00:31:22;;;;;;;1.65;0.75;;;;;;;18.58;48.01;100962.03;4909130;29;20466;-79
2022/05/28 00:33:50;;;;;;;2.22;0.70;;;;;;;18.58;48.90;100955.91;4916052;28;20052;-79
2022/05/28 00:36:19;;;;;;;1.83;1.05;;;;;;;18.57;48.06;100955.00;4913915;29;20084;-80
2022/05/28 00:38:49;;;;;;;2.25;0.68;;;;;;;18.53;48.34;100953.28;4913976;29;20052;-81
2022/05/28 00:41:17;;;;;;;1.65;0.70;;;;;;;18.52;48.94;100956.78;4913642;29;20570;-80
2022/05/28 00:43:47;;;;;;;5.18;0.73;;;;;;;18.50;48.69;100952.41;4895463;29;20499;-79
2022/05/28 00:46:19;;;;;;;2.95;0.90;;;;;;;18.49;48.36;100951.53;4895062;29;20551;-81
2022/05/28 00:48:50;;;;;;;3.03;0.65;;;;;;;18.45;49.41;100944.53;4894589;29;20052;-83
2022/05/28 00:51:22;;;;;;;2.42;0.60;;;;;;;18.42;48.83;100944.56;4895106;29;20112;-81
2022/05/28 00:53:56;;;;;;;2.92;0.80;;;;;;;18.41;49.04;100935.78;4894804;29;20577;-81
2022/05/28 00:56:24;;;;;;;6.10;0.90;;;;;;;18.43;48.76;100941.06;4913802;29;20079;-81
2022/05/28 00:58:53;;;;;;;2.85;0.88;;;;;;;18.42;49.38;100929.69;4913657;29;20048;-80
2022/05/28 01:01:25;;;;;;;3.33;1.10;;;;;;;18.41;48.56;100930.56;4913848;29;20566;-80
2022/05/28 01:04:06;;;;;;;3.97;0.82;;;;;;;18.42;48.14;100926.22;4913345;29;20521;-80
2022/05/28 01:06:44;;;;;;;2.30;1.13;;;;;;;18.45;49.33;100934.06;4913465;29;20060;-80
2022/05/28 01:09:21;;;;;;;1.00;0.60;;;;;;;18.45;48.54;100928.81;4914006;29;20120;-82
2022/05/28 01:11:56;;;;;;;2.65;0.73;;;;;;;18.45;48.22;100933.19;4913608;29;20466;-81
2022/05/28 01:14:27;;;;;;;3.38;0.73;;;;;;;18.47;48.30;100926.22;4913117;29;20490;-80
2022/05/28 01:17:00;;;;;;;2.83;0.88;;;;;;;18.47;49.87;100929.69;4914038;29;20119;-79
2022/05/28 01:19:40;;;;;;;2.78;0.80;;;;;;;18.42;50.15;100915.75;4913927;29;20056;-79
2022/05/28 01:22:16;;;;;;;2.53;0.80;;;;;;;18.46;49.99;100920.06;4902158;29;20101;-78
2022/05/28 01:24:58;;;;;;;3.42;1.40;;;;;;;18.45;48.98;100920.97;4895021;29;20113;-78
2022/05/28 01:27:33;;;;;;;1.23;0.80;;;;;;;18.41;49.95;100916.59;4895176;29;20057;-79
2022/05/28 01:30:06;;;;;;;1.77;0.75;;;;;;;18.38;49.19;100921.84;4897649;29;20104;-79
2022/05/28 01:32:35;;;;;;;4.25;0.98;;;;;;;18.38;49.84;100927.09;4912870;29;20096;-80
2022/05/28 01:35:08;;;;;;;2.28;0.85;;;;;;;18.36;49.43;100913.09;4915752;28;20071;-79
2022/05/28 01:37:37;;;;;;;;;;;;;;;18.36;49.80;100919.22;4914485;29;20064;-79
2022/05/28 01:40:09;;;;;;;3.70;0.80;;;;;;;18.35;50.00;100911.38;4913609;29;19930;-79
2022/05/28 01:42:44;;;;;;;3.58;0.93;;;;;;;18.33;49.37;100911.38;4903446;29;20056;-81
2022/05/28 01:45:16;;;;;;;3.58;0.80;;;;;;;18.30;50.86;100911.38;4894439;29;20127;-79
2022/05/28 01:47:46;;;;;;;4.97;1.20;;;;;;;18.28;50.62;100914.84;4894383;29;20056;-80
2022/05/28 01:50:16;;;;;;;5.03;1.00;;;;;;;18.24;50.44;100913.13;4897427;29;20057;-80
2022/05/28 01:52:45;;;;;;;2.35;0.70;;;;;;;18.23;49.83;100906.97;4894360;29;20105;-79
2022/05/28 01:55:17;;;;;;;2.80;0.70;;;;;;;18.24;49.52;100907.88;4895527;29;20072;-80
2022/05/28 01:57:47;;;;;;;3.45;0.60;;;;;;;18.23;50.31;100906.13;4894998;29;20491;-79
2022/05/28 02:00:17;;;;;;;5.47;0.70;;;;;;;18.24;50.83;100903.50;4894493;29;20052;-81
2022/05/28 02:02:45;;;;;;;2.45;0.90;;;;;;;18.25;50.88;100904.38;4893963;29;20104;-80
2022/05/28 02:05:14;;;;;;;1.45;0.50;;;;;;;18.24;51.52;100900.03;4894752;29;20056;-79
2022/05/28 02:07:43;;;;;;;2.28;0.70;;;;;;;18.24;51.73;100902.63;4897762;29;20136;-79
2022/05/28 02:10:14;;;;;;;2.05;0.80;;;;;;;18.15;53.29;100893.88;4897819;29;20525;-79
2022/05/28 02:12:54;;;;;;;3.42;0.90;;;;;;;18.18;52.31;100899.13;4897228;29;20048;-80
2022/05/28 02:15:39;;;;;;;1.63;0.65;;;;;;;18.17;51.62;100896.53;4915908;29;20056;-80
2022/05/28 02:18:20;;;;;;;2.75;0.80;;;;;;;18.15;51.78;100896.50;4916623;29;20060;-79
2022/05/28 02:21:00;;;;;;;2.03;0.77;;;;;;;18.13;51.87;100905.25;4915330;29;20087;-79
2022/05/28 02:23:34;;;;;;;2.28;0.52;;;;;;;18.05;51.78;100897.38;4897038;29;20578;-80
2022/05/28 02:26:08;;;;;;;3.80;0.90;;;;;;;17.99;52.09;100906.09;4897494;29;20044;-79
2022/05/28 02:28:40;;;;;;;2.60;0.60;;;;;;;17.94;52.70;100902.59;4897275;29;20104;-79
2022/05/28 02:31:16;;;;;;;3.90;0.70;;;;;;;17.90;52.68;100897.38;4909283;29;20123;-80
2022/05/28 02:33:45;;;;;;;2.63;0.85;;;;;;;17.84;52.91;100895.59;4916181;29;20112;-80
2022/05/28 02:36:14;;;;;;;2.70;0.80;;;;;;;17.79;54.96;100907.78;4918303;28;20056;-78
2022/05/28 02:38:43;;;;;;;5.57;0.80;;;;;;;17.70;53.04;100898.16;4916206;29;20559;-79
2022/05/28 02:41:12;;;;;;;1.55;0.60;;;;;;;17.67;53.35;100900.75;4916191;29;20491;-79
2022/05/28 02:43:42;;;;;;;3.45;1.10;;;;;;;17.63;54.36;100906.84;4899080;29;20113;-80
2022/05/28 02:46:11;;;;;;;2.67;1.02;;;;;;;17.59;55.29;100900.75;4899120;29;20049;-79
2022/05/28 02:48:40;;;;;;;2.30;0.90;;;;;;;17.57;55.96;100893.78;4897084;29;20052;-80
2022/05/28 02:51:11;;;;;;;2.78;1.20;;;;;;;17.54;55.48;100899.84;4897263;29;20143;-79
2022/05/28 02:53:40;;;;;;;1.85;1.00;;;;;;;17.50;55.60;100898.09;4896945;29;20108;-80
2022/05/28 02:56:10;;;;;;;2.47;0.70;;;;;;;17.45;55.80;100891.97;4912732;29;20111;-80
2022/05/28 02:58:39;;;;;;;3.70;0.80;;;;;;;17.43;55.27;100898.06;4915490;29;20056;-80
2022/05/28 03:01:20;;;;;;;2.70;0.90;;;;;;;17.38;55.51;100893.72;4916000;29;20521;-79
2022/05/28 03:03:49;;;;;;;2.17;0.80;;;;;;;17.32;55.85;100904.13;4914990;29;20098;-80
2022/05/28 03:06:18;;;;;;;4.18;1.02;;;;;;;17.26;55.39;100892.78;4915957;29;20099;-81
2022/05/28 03:08:46;;;;;;;2.15;0.80;;;;;;;17.23;55.55;100898.88;4915837;29;20566;-80
2022/05/28 03:11:15;;;;;;;3.10;0.93;;;;;;;17.21;55.71;100899.75;4916183;29;20120;-80
2022/05/28 03:13:44;;;;;;;1.95;0.70;;;;;;;17.17;55.88;100901.44;4914991;29;20120;-80
2022/05/28 03:16:13;;;;;;;1.98;0.93;;;;;;;17.08;56.40;100890.94;4915768;29;20056;-80
2022/05/28 03:18:43;;;;;;;2.85;0.85;;;;;;;17.07;57.00;100892.69;4915123;29;20044;-79
2022/05/28 03:21:11;;;;;;;4.35;1.10;;;;;;;17.06;56.68;100900.53;4912303;29;20072;-80
2022/05/28 03:23:40;;;;;;;2.25;0.68;;;;;;;17.03;55.68;100895.28;4896463;29;20063;-80
2022/05/28 03:26:16;;;;;;;3.22;0.60;;;;;;;16.98;56.06;100897.00;4896367;29;20132;-80
2022/05/28 03:28:45;;;;;;;4.85;0.90;;;;;;;16.94;56.53;100894.34;4896872;29;20082;-80
2022/05/28 03:31:13;;;;;;;1.63;0.65;;;;;;;16.92;59.64;100903.91;4908458;29;20056;-81
2022/05/28 03:33:44;;;;;;;2.40;0.70;;;;;;;16.89;58.89;100903.91;4914871;29;20526;-80
2022/05/28 03:36:13;;;;;;;1.52;0.57;;;;;;;16.88;58.34;100896.06;4917103;28;20111;-80
2022/05/28 03:38:41;;;;;;;3.28;1.05;;;;;;;16.84;57.65;100894.31;4917157;29;20055;-82
2022/05/28 03:41:10;;;;;;;1.55;0.85;;;;;;;16.78;57.80;100897.72;4916253;29;20083;-82
2022/05/28 03:43:38;;;;;;;2.47;0.80;;;;;;;16.74;58.16;100893.31;4897094;29;20056;-83
2022/05/28 03:46:07;;;;;;;2.33;0.85;;;;;;;16.73;58.77;100889.84;4896333;29;20140;-84
2022/05/28 03:48:36;;;;;;;1.95;0.85;;;;;;;16.70;59.48;100886.38;4896162;29;20045;-82
2022/05/28 03:51:07;;;;;;;2.50;1.10;;;;;;;16.67;58.68;100891.53;4896440;29;20495;-82
2022/05/28 03:53:35;;;;;;;3.50;0.90;;;;;;;16.64;58.51;100888.91;4896039;29;20048;-84
2022/05/28 03:56:04;;;;;;;2.55;0.80;;;;;;;16.61;58.43;100887.16;4914149;29;20621;-83
2022/05/28 03:58:32;;;;;;;1.75;0.70;;;;;;;16.59;59.55;100893.25;4917468;29;20048;-82
2022/05/28 04:01:01;;;;;;;1.13;0.75;;;;;;;16.55;60.25;100884.50;4916351;29;20048;-83
2022/05/28 04:03:30;;;;;;;4.22;1.08;;;;;;;16.51;61.34;100890.56;4915736;29;20068;-82
2022/05/28 04:05:59;;;;;;;3.42;1.05;;;;;;;16.47;61.44;100892.28;4914888;29;20090;-82
2022/05/28 04:08:29;;;;;;;2.30;0.93;;;;;;;16.40;61.76;100882.66;4914762;29;20052;-82
2022/05/28 04:10:58;;;;;;;2.72;0.80;;;;;;;16.34;60.28;100893.06;4914732;29;20143;-83
2022/05/28 04:13:26;;;;;;;1.92;0.90;;;;;;;16.32;61.12;100889.56;4914255;29;20079;-83
2022/05/28 04:15:55;;;;;;;5.03;1.38;;;;;;;16.27;61.34;100888.66;4914958;29;20048;-82
2022/05/28 04:18:23;;;;;;;5.28;1.25;;;;;;;16.24;59.86;100897.34;4914628;29;20079;-83
2022/05/28 04:20:52;;;;;;;2.78;1.08;;;;;;;16.21;59.03;100888.59;4913393;29;20108;-81
2022/05/28 04:23:20;;;;;;;3.03;1.23;;;;;;;16.19;59.41;100887.69;4895073;29;20529;-82
2022/05/28 04:25:57;;;;;;;1.90;1.05;;;;;;;16.17;59.96;100894.63;4895508;29;20120;-82
2022/05/28 04:28:25;;;;;;;5.05;1.00;;;;;;;16.12;60.55;100891.97;4894824;29;20048;-82
2022/05/28 04:30:53;;;;;;;3.25;1.00;;;;;;;16.08;60.08;100891.09;4904909;29;20467;-81
2022/05/28 04:33:22;;;;;;;1.48;1.00;;;;;;;16.03;60.05;100882.31;4915715;29;20044;-82
2022/05/28 04:35:57;;;;;;;4.20;1.13;;;;;;;16.01;60.19;100899.75;4920724;28;20119;-82
2022/05/28 04:38:33;;;;;;;4.88;1.25;;;;;;;15.96;59.15;100898.78;4914175;29;20108;-82
2022/05/28 04:41:03;;;;;;;2.58;1.55;;;;;;;15.93;59.47;100890.94;4913566;29;20107;-82
2022/05/28 04:43:31;;;;;;;4.80;1.40;;;;;;;15.89;59.34;100891.78;4896773;29;20052;-83
2022/05/28 04:46:00;;;;;;;5.80;2.05;;;;;;;15.87;59.49;100896.09;4894794;29;20146;-82
2022/05/28 04:48:29;;;;;;;2.78;1.48;;;;;;;15.83;58.63;100904.78;4895231;29;20049;-83
2022/05/28 04:50:57;;;;;;;2.63;0.90;;;;;;;15.80;58.54;100900.38;4895301;29;20060;-82
2022/05/28 04:53:26;;;;;;;4.50;1.58;;;;;;;15.77;63.21;100904.69;4894392;29;20099;-82
2022/05/28 04:55:54;;;;;;;2.47;1.23;;;;;;;15.73;62.49;100898.56;4908638;29;20052;-82
2022/05/28 04:58:24;;;;;;;1.90;1.27;;;;;;;15.67;60.52;100901.97;4913322;29;20725;-82
2022/05/28 05:00:53;;;;;;;1.88;1.38;;;;;;;15.64;62.82;100901.91;4913628;29;20048;-82
2022/05/28 05:03:21;;;;;;;2.33;1.20;;;;;;;15.61;64.40;100899.28;4913056;29;20059;-83
2022/05/28 05:05:50;;;;;;;1.80;1.33;;;;;;;15.58;64.21;100898.38;4913568;29;20052;-81
2022/05/28 05:08:18;;;;;;;2.17;1.40;;;;;;;15.54;62.82;100896.59;4913803;29;20751;-78
2022/05/28 05:10:48;;;;;;;6.93;1.00;;;;;;;15.50;62.27;100895.66;4913578;29;20140;-78
2022/05/28 05:13:16;;;;;;;2.97;0.80;;;;;;;15.46;65.08;100888.66;4912877;29;20044;-78
2022/05/28 05:15:47;;;;;;;1.30;0.93;;;;;;;15.44;65.40;100883.44;4913534;29;20052;-79
2022/05/28 05:18:15;;;;;;;2.35;1.23;;;;;;;15.40;66.76;100883.41;4914054;29;20083;-78
2022/05/28 05:20:44;;;;;;;4.57;1.20;;;;;;;15.37;66.33;100878.13;4913654;29;20514;-79
2022/05/28 05:23:12;;;;;;;3.95;1.38;;;;;;;15.34;65.46;100880.72;4875868;29;20057;-76
2022/05/28 05:25:41;;;;;;;3.45;1.13;;;;;;;15.36;66.15;100873.78;4876388;29;20155;-78
2022/05/28 05:28:09;;;;;;;4.60;1.90;;;;;;;15.34;66.47;100862.47;4877240;29;20104;-79
2022/05/28 05:30:45;;;;;;;3.00;1.33;;;;;;;15.33;66.18;100865.94;4892173;29;20107;-78
2022/05/28 05:33:15;;;;;;;3.75;1.30;;;;;;;15.29;66.97;100860.66;4913274;29;20598;-78
2022/05/28 05:35:43;;;;;;;2.95;1.40;;;;;;;15.27;66.12;100867.59;4915631;28;20055;-78
2022/05/28 05:38:12;;;;;;;3.95;1.23;;;;;;;15.24;65.25;100867.56;4911981;29;20486;-78
2022/05/28 05:40:40;;;;;;;3.70;1.05;;;;;;;15.21;64.88;100867.53;4914295;29;20051;-77
2022/05/28 05:43:09;;;;;;;1.65;1.30;;;;;;;15.19;66.43;100868.38;4903456;29;20057;-78
2022/05/28 05:45:38;;;;;;;3.47;1.38;;;;;;;15.17;67.56;100870.94;4898084;29;20084;-78
2022/05/28 05:48:07;;;;;;;3.92;1.20;;;;;;;15.16;68.18;100865.72;4898023;29;20049;-78
2022/05/28 05:50:37;;;;;;;1.48;0.95;;;;;;;15.12;68.52;100862.22;4897977;29;20049;-80
2022/05/28 05:53:06;;;;;;;2.90;1.00;;;;;;;15.10;68.70;100863.91;4897807;29;20056;-80
2022/05/28 05:55:35;;;;;;;2.88;1.00;;;;;;;15.07;68.42;100859.53;4909352;29;20103;-81
2022/05/28 05:58:04;;;;;;;4.57;0.95;;;;;;;15.06;68.28;100863.00;4917438;29;20092;-79
2022/05/28 06:00:32;;;;;;;4.20;1.00;;;;;;;15.02;69.78;100860.31;4916911;29;20048;-78
2022/05/28 06:03:01;;;;;;;3.03;0.93;;;;;;;14.99;69.65;100862.91;4916450;29;20362;-79
2022/05/28 06:05:29;;;;;;;2.42;0.80;;;;;;;14.95;70.73;100859.38;4916038;29;20127;-78
2022/05/28 06:08:00;;;;;;;8.35;1.10;;;;;;;14.96;70.44;100860.28;4916682;29;20092;-80
2022/05/28 06:10:28;;;;;;;3.38;0.65;;;;;;;14.94;69.81;100851.56;4915772;29;20487;-79
2022/05/28 06:12:57;;;;;;;2.22;0.90;;;;;;;14.92;70.58;100855.88;4916245;29;20074;-80
2022/05/28 06:15:25;;;;;;;1.90;0.80;;;;;;;14.90;70.88;100853.22;4916728;29;20459;-79
2022/05/28 06:17:53;;;;;;;2.25;0.80;;;;;;;14.88;69.17;100847.97;4916740;29;20048;-78
2022/05/28 06:20:22;;;;;;;2.10;0.60;;;;;;;14.86;71.25;100849.69;4915552;29;20054;-80
2022/05/28 06:22:50;;;;;;;4.60;1.20;;;;;;;14.83;71.21;100841.84;4899765;29;20057;-78
2022/05/28 06:25:21;;;;;;;4.32;1.60;;;;;;;14.81;71.63;100840.94;4899704;29;20471;-80
2022/05/28 06:27:49;;;;;;;2.92;1.17;;;;;;;14.78;71.78;100835.72;4898426;29;20063;-80
2022/05/28 06:30:18;;;;;;;2.67;0.75;;;;;;;14.76;70.20;100834.81;4902308;29;20048;-83
2022/05/28 06:32:46;;;;;;;2.55;0.75;;;;;;;14.74;70.09;100836.50;4916581;29;20506;-81
2022/05/28 06:35:15;;;;;;;2.97;0.73;;;;;;;14.73;69.31;100839.09;4918305;28;20124;-80
2022/05/28 06:37:43;;;;;;;2.30;1.00;;;;;;;14.72;69.31;100835.63;4916464;29;20487;-80
2022/05/28 06:40:12;;;;;;;1.67;0.65;;;;;;;14.70;68.49;100826.91;4916554;29;20052;-80
2022/05/28 06:42:44;;;;;;;1.67;0.90;;;;;;;14.67;68.12;100826.88;4908734;29;20085;-81
2022/05/28 06:45:14;;;;;;;2.58;0.77;;;;;;;14.62;67.72;100826.81;4901214;29;20543;-82
2022/05/28 06:47:43;;;;;;;7.10;1.10;;;;;;;14.58;67.12;100821.53;4902967;29;20111;-81
2022/05/28 06:52:58;;;;;;;2.53;0.90;;;;;;;14.51;67.45;100824.88;4896881;29;20064;-82
2022/05/28 06:55:27;;;;;;;2.53;0.85;;;;;;;14.48;66.29;100830.91;4907176;29;20056;-83
2022/05/28 06:57:57;;;;;;;1.85;0.80;;;;;;;14.44;67.06;100822.16;4916558;29;20123;-78
2022/05/28 07:00:25;;;;;;;2.28;0.80;;;;;;;14.37;67.23;100822.94;4915510;29;20071;-79
2022/05/28 07:02:54;;;;;;;0.88;0.65;;;;;;;14.27;67.28;100823.66;4915403;29;20056;-79
2022/05/28 07:05:22;;;;;;;1.85;0.65;;;;;;;14.23;67.21;100819.25;4915923;29;20052;-80
2022/05/28 07:07:51;;;;;;;2.05;0.80;;;;;;;14.22;68.59;100817.50;4916603;29;20469;-80
2022/05/28 07:10:19;;;;;;;4.43;1.00;;;;;;;14.23;68.91;100808.84;4916188;29;20135;-79
2022/05/28 07:12:48;;;;;;;2.10;0.70;;;;;;;14.22;67.95;100807.06;4914995;29;20063;-79
2022/05/28 07:15:18;;;;;;;3.60;0.73;;;;;;;14.21;67.42;100801.00;4916433;29;20123;-79
2022/05/28 07:17:46;;;;;;;2.92;0.95;;;;;;;14.19;67.23;100799.22;4916585;29;20048;-79
2022/05/28 07:20:15;;;;;;;1.70;0.95;;;;;;;14.17;67.07;100808.75;4918788;29;20123;-79
2022/05/28 07:22:44;;;;;;;3.45;0.82;;;;;;;14.14;67.16;100804.38;4899680;29;20053;-79
2022/05/28 07:25:12;;;;;;;1.27;0.90;;;;;;;14.12;67.49;100800.00;4896784;29;20500;-80
2022/05/28 07:27:41;;;;;;;1.17;0.70;;;;;;;14.09;68.22;100789.50;4897243;29;20123;-80
2022/05/28 07:30:11;;;;;;;1.48;0.80;;;;;;;14.05;68.87;100791.22;4900294;29;20055;-80
2022/05/28 07:32:41;;;;;;;1.95;0.80;;;;;;;14.01;69.01;100786.81;4915180;29;20147;-80
2022/05/28 07:35:11;;;;;;;2.75;0.90;;;;;;;13.98;68.65;100787.63;4916869;28;20044;-80
2022/05/28 07:37:40;;;;;;;1.20;0.70;;;;;;;13.94;68.80;100780.63;4914755;29;20539;-80
2022/05/28 07:40:10;;;;;;;1.83;0.90;;;;;;;13.90;69.56;100781.41;4915086;29;20060;-80
2022/05/28 07:42:38;;;;;;;2.00;0.70;;;;;;;13.87;69.79;100772.72;4905114;29;20151;-80
2022/05/28 07:45:07;;;;;;;3.17;0.90;;;;;;;13.84;70.21;100773.53;4896126;29;20469;-80
2022/05/28 07:47:36;;;;;;;1.45;1.00;;;;;;;13.82;71.69;100777.84;4895462;29;20092;-80
2022/05/28 07:50:06;;;;;;;3.45;0.98;;;;;;;13.77;72.17;100764.75;4895844;29;20175;-80
2022/05/28 07:52:35;;;;;;;3.35;1.00;;;;;;;13.75;71.73;100762.97;4895134;29;20499;-79
2022/05/28 07:55:03;;;;;;;1.88;0.82;;;;;;;13.60;72.23;100745.38;4903385;29;20087;-80
2022/05/28 07:57:32;;;;;;;3.58;1.23;;;;;;;13.66;72.15;100752.44;4914409;29;20119;-80
2022/05/28 08:00:01;;;;;;;3.40;1.02;;;;;;;13.61;72.75;100748.03;4913904;29;20084;-80
2022/05/28 08:02:29;;;;;;;2.05;0.93;;;;;;;13.59;74.25;100746.25;4913924;29;20048;-80
2022/05/28 08:04:58;;;;;;;2.53;1.38;;;;;;;13.57;75.35;100734.94;4913681;29;20120;-80
2022/05/28 08:07:28;;;;;;;2.88;1.20;;;;;;;13.54;75.41;100738.38;4913449;29;20060;-80
2022/05/28 08:09:58;;;;;;;2.88;0.85;;;;;;;13.54;75.98;100734.91;4914371;29;20052;-79
2022/05/28 08:12:26;;;;;;;4.88;1.20;;;;;;;13.49;75.92;100729.63;4914029;29;20501;-80
2022/05/28 08:14:55;;;;;;;6.40;1.38;;;;;;;13.47;75.99;100726.13;4915200;29;20206;-79
2022/05/28 08:17:24;;;;;;;1.88;1.00;;;;;;;13.47;76.49;100720.94;4915544;29;20055;-80
2022/05/28 08:19:53;;;;;;;4.70;1.20;;;;;;;13.47;76.57;100715.72;4913913;29;20565;-79
2022/05/28 08:25:05;;;;;;;6.30;1.20;;;;;;;13.46;77.20;100713.97;4883513;29;20135;-80
2022/05/28 08:27:33;;;;;;;7.10;1.38;;;;;;;13.47;78.48;100705.31;4895318;29;20055;-78
2022/05/28 08:30:02;;;;;;;1.63;1.10;;;;;;;13.46;78.37;100700.09;4897929;29;20044;-79
2022/05/28 08:32:30;;;;;;;5.18;1.17;;;;;;;13.45;79.11;100701.81;4913417;29;20100;-80
2022/05/28 08:34:59;;;;;;;3.78;1.15;;;;;;;13.42;79.68;100686.16;4913724;29;20090;-79
2022/05/28 08:37:27;;;;;;;5.32;1.25;;;;;;;13.39;80.02;100686.13;4914272;29;20111;-79
2022/05/28 08:39:56;;;;;;;3.58;1.25;;;;;;;13.43;80.79;100687.94;4913446;29;20044;-79
2022/05/28 08:42:29;;;;;;;3.50;1.38;;;;;;;13.41;81.13;100690.50;4905787;29;20385;-79
2022/05/28 08:45:00;;;;;;;3.17;1.20;;;;;;;13.39;81.35;100681.78;4895372;29;20084;-80
2022/05/28 08:47:34;;;;;;;3.25;1.33;;;;;;;13.38;82.32;100674.00;4895465;29;20056;-79
2022/05/28 08:50:02;;;;;;;2.85;1.00;;;;;;;13.38;82.69;100671.38;4894849;29;20155;-79
2022/05/28 08:52:34;;;;;;;4.90;1.10;;;;;;;13.38;84.52;100668.78;4893973;29;20060;-79
2022/05/28 08:55:08;;;;;;;2.40;1.30;;;;;;;13.39;85.05;100667.94;4901721;29;20048;-79
2022/05/28 08:57:58;;;;;;;3.30;1.27;;;;;;;13.36;84.96;100657.50;4913948;29;20052;-79
2022/05/28 09:00:39;;;;;;;4.13;1.33;;;;;;;13.37;84.54;100659.22;4913973;29;20088;-79
2022/05/28 09:03:11;;;;;;;2.70;1.13;;;;;;;13.35;83.74;100659.22;4913081;29;20856;-79
2022/05/28 09:05:49;;;;;;;3.92;1.17;;;;;;;13.34;83.82;100656.59;4913737;29;20498;-79
2022/05/28 09:08:26;;;;;;;4.10;1.30;;;;;;;13.32;83.04;100658.28;4913736;29;20099;-79
2022/05/28 09:10:58;;;;;;;7.25;1.77;;;;;;;13.32;83.39;100658.28;4914694;29;20107;-79
2022/05/28 09:13:36;;;;;;;6.22;1.63;;;;;;;13.31;83.35;100648.72;4899752;29;20140;-79
2022/05/28 09:16:07;;;;;;;2.65;1.52;;;;;;;13.31;83.66;100641.81;4901991;29;20124;-79
2022/05/28 09:18:38;;;;;;;2.63;1.02;;;;;;;13.31;83.55;100636.63;4907589;29;20052;-79
2022/05/28 09:21:08;;;;;;;2.90;1.30;;;;;;;13.31;83.76;100640.91;4898133;29;20456;-79
2022/05/28 09:23:44;;;;;;;4.30;1.65;;;;;;;13.30;83.74;100628.78;4903086;29;20048;-78
2022/05/28 09:26:16;;;;;;;2.28;1.50;;;;;;;13.30;84.36;100628.78;4897534;29;20045;-79
2022/05/28 09:29:00;;;;;;;2.15;1.40;;;;;;;13.29;85.41;100622.72;4897302;29;20127;-79
2022/05/28 09:31:45;;;;;;;1.23;1.00;;;;;;;13.25;85.27;100620.91;4907455;29;20182;-79
2022/05/28 09:34:39;;;;;;;3.65;1.80;;;;;;;13.21;84.51;100613.88;4884510;29;20634;-79
2022/05/28 09:37:16;;;;;;;3.42;1.52;;;;;;;13.24;84.47;100618.25;4900530;28;20096;-79
2022/05/28 09:39:54;;;;;;;1.75;1.13;;;;;;;13.24;84.38;100618.25;4897466;29;20056;-80
2022/05/28 09:42:29;;;;;;;3.15;1.15;;;;;;;13.24;84.14;100615.66;4893277;29;20084;-80
2022/05/28 09:45:22;;;;;;;2.03;1.25;;;;;;;13.24;83.68;100602.66;4897965;29;20543;-80
2022/05/28 09:47:52;;;;;;;1.88;1.20;;;;;;;13.19;84.03;100600.91;4902204;29;20469;-79
2022/05/28 09:50:25;;;;;;;3.70;1.20;;;;;;;13.16;84.18;100594.75;4902349;29;20139;-80
2022/05/28 09:56:01;;;;;;;2.53;1.02;;;;;;;13.14;85.70;100586.94;4892342;29;20309;-79
2022/05/28 09:58:32;;;;;;;2.65;1.00;;;;;;;13.17;85.03;100581.81;4901028;29;20499;-79
2022/05/28 10:01:15;;;;;;;3.17;1.38;;;;;;;13.18;85.24;100580.94;4898645;29;20048;-79
2022/05/28 10:06:32;;;;;;;1.48;1.10;;;;;;;13.17;85.95;100576.59;4871398;29;20051;-79
2022/05/28 10:09:12;;;;;;;2.17;1.15;;;;;;;13.19;86.08;100561.94;4907687;29;20516;-79
2022/05/28 10:11:51;;;;;;;2.03;1.02;;;;;;;13.20;85.29;100566.25;4895115;29;20045;-79
2022/05/28 10:14:20;;;;;;;2.38;0.90;;;;;;;13.23;85.46;100559.38;4887343;29;20100;-79
2022/05/28 10:16:54;;;;;;;3.83;1.08;;;;;;;13.24;86.80;100561.09;4883970;29;20397;-80
2022/05/28 10:19:28;;;;;;;1.88;1.35;;;;;;;13.24;87.74;100549.00;4885574;29;20045;-79
2022/05/28 10:22:00;;;;;;;2.28;0.95;;;;;;;13.24;88.28;100550.69;4901787;29;20083;-77
2022/05/28 10:24:37;;;;;;;6.05;1.35;;;;;;;13.24;87.27;100545.50;4890243;29;20491;-77
2022/05/28 10:27:07;;;;;;;5.30;1.25;;;;;;;13.25;87.34;100548.13;4904598;29;20063;-78
2022/05/28 10:29:38;;;;;;;2.28;0.95;;;;;;;13.25;87.05;100547.28;4886028;29;20120;-78
2022/05/28 10:32:24;;;;;;;2.65;1.23;;;;;;;13.22;85.98;100553.31;4885561;29;20056;-79
2022/05/28 10:35:05;;;;;;;4.22;1.30;;;;;;;13.20;85.33;100545.47;4892596;29;20565;-79
2022/05/28 10:37:40;;;;;;;2.05;1.10;;;;;;;13.21;85.13;100549.81;4910596;28;20100;-81
2022/05/28 10:40:14;;;;;;;3.65;1.10;;;;;;;13.20;84.95;100540.28;4894092;29;20081;-79
2022/05/28 10:42:43;;;;;;;7.13;1.33;;;;;;;13.21;85.17;100535.94;4899686;29;20490;-80
2022/05/28 10:45:12;;;;;;;1.45;1.10;;;;;;;13.20;85.10;100535.06;4892348;29;20056;-79
2022/05/28 10:48:13;;;;;;;1.58;1.15;;;;;;;13.19;85.27;100533.34;4881254;29;20488;-79
2022/05/28 10:50:53;;;;;;;3.45;0.98;;;;;;;13.19;85.33;100528.16;4883656;29;20048;-79
2022/05/28 10:53:31;;;;;;;4.15;1.40;;;;;;;13.17;85.28;100524.66;4901078;29;20092;-79
2022/05/28 10:56:21;;;;;;;1.38;0.70;;;;;;;13.17;85.14;100527.25;4893362;29;20470;-78
2022/05/28 10:58:57;;;;;;;5.05;1.20;;;;;;;13.16;85.30;100525.47;4885997;29;20051;-78
2022/05/28 11:01:40;;;;;;;2.08;1.00;;;;;;;13.15;85.00;100518.56;4905099;29;20080;-79
2022/05/28 11:04:48;;;;;;;2.83;1.17;;;;;;;13.15;84.97;100512.50;4896616;29;20049;-79
2022/05/28 11:07:54;;;;;;;3.72;1.10;;;;;;;13.14;85.66;100509.00;4848069;29;20056;-78
2022/05/28 11:10:34;;;;;;;3.00;1.02;;;;;;;13.14;85.44;100508.13;4881960;29;20080;-78
2022/05/28 11:13:28;;;;;;;2.08;1.25;;;;;;;13.12;85.58;100497.72;4895844;29;20147;-78
2022/05/28 11:16:28;;;;;;;3.92;0.95;;;;;;;13.11;87.10;100495.09;4891767;29;20076;-79
2022/05/28 11:19:08;;;;;;;4.05;0.95;;;;;;;13.08;87.44;100495.03;4896426;29;20052;-78
2022/05/28 11:21:58;;;;;;;2.15;1.25;;;;;;;13.01;88.05;100491.50;4883876;29;20083;-79
2022/05/28 11:24:46;;;;;;;3.75;1.13;;;;;;;12.93;87.83;100493.97;4897301;29;20562;-79
2022/05/28 11:27:22;;;;;;;1.70;0.90;;;;;;;12.89;87.88;100486.09;4888236;29;20052;-79
2022/05/28 11:30:01;;;;;;;2.45;0.85;;;;;;;12.89;87.88;100478.31;4884707;29;20136;-83
2022/05/28 11:32:35;;;;;;;1.98;1.02;;;;;;;12.91;87.11;100469.69;4894401;29;20053;-78
2022/05/28 11:35:11;;;;;;;1.73;0.75;;;;;;;12.93;87.24;100472.31;4895243;29;20084;-79
2022/05/28 11:37:52;;;;;;;3.67;1.33;;;;;;;12.95;87.60;100470.63;4907244;28;20064;-78
2022/05/28 11:40:25;;;;;;;6.68;1.40;;;;;;;12.96;87.87;100467.16;4912306;29;20088;-78
2022/05/28 11:43:00;;;;;;;4.30;1.20;;;;;;;12.97;87.56;100463.72;4921351;29;20458;-78
2022/05/28 11:45:38;;;;;;;2.60;1.10;;;;;;;12.97;87.29;100462.00;4903261;29;20121;-78
2022/05/28 11:48:12;;;;;;;3.40;1.25;;;;;;;12.95;88.04;100460.25;4903621;29;20514;-79
2022/05/28 11:53:37;;;;;;;2.30;1.00;;;;;;;12.84;88.78;100448.81;4905207;29;20063;-79
2022/05/28 11:56:11;;;;;;;4.70;1.02;;;;;;;12.84;89.23;100452.28;4907940;29;20100;-78
2022/05/28 11:58:46;;;;;;;2.20;1.20;;;;;;;12.73;89.60;100441.72;4905290;29;20048;-78
2022/05/28 12:01:21;;;;;;;1.20;1.02;;;;;;;12.88;89.66;100448.00;4919561;29;20074;-78